Terminal Aerodrome Forecast
Issued by NWS

Home | Current Version | Previous Version | Text Only | Print | Product List | Glossary On
Versions: 1 2 3 4 5 6 7 8 9 10 11 12
842
FTUS46 KSTO 271123
TAFMHR
TAF
KMHR 271123Z 2712/2812 20008KT P6SM VCSH BKN100
      TEMPO 2714/2717 3SM BR
     FM272000 33005KT P6SM BKN100
      AMD NOT SKED=

USA.gov is the U.S. government's official web portal to all federal, state and local government web resources and services.